Time;durP1;ratioP1;P1;durP2;ratioP2;P2;SDS_P1;SDS_P2;PMS_P1;PMS_P2;Temp;Humidity;BMP_temperature;BMP_pressure;BME280_temperature;BME280_humidity;BME280_pressure;Samples;Min_cycle;Max_cycle;Signal;HPM_P1;HPM_P2
2023/10/20 00:01:38;;;;;;;22.17;20.00;;;7.40;1.00;;;;;;5151271;27;20300;-69
2023/10/20 00:04:05;;;;;;;21.38;19.15;;;7.40;1.00;;;;;;5117062;27;21138;-76
2023/10/20 00:06:33;;;;;;;21.80;19.60;;;7.40;1.00;;;;;;5124380;27;20980;-75
2023/10/20 00:09:03;;;;;;;22.02;19.70;;;7.40;1.00;;;;;;5129293;27;20258;-75
2023/10/20 00:11:30;;;;;;;22.27;20.02;;;7.40;1.00;;;;;;5130549;27;20741;-76
2023/10/20 00:13:57;;;;;;;22.33;20.05;;;7.40;1.00;;;;;;5133001;27;20255;-76
2023/10/20 00:16:25;;;;;;;22.52;20.17;;;7.40;1.00;;;;;;5132040;27;20249;-76
2023/10/20 00:18:52;;;;;;;22.85;20.58;;;7.40;1.00;;;;;;5132260;27;20610;-76
2023/10/20 00:21:19;;;;;;;22.50;20.20;;;7.40;1.00;;;;;;5134787;27;20238;-75
2023/10/20 00:23:47;;;;;;;21.10;18.92;;;7.40;1.00;;;;;;5134457;27;20343;-74
2023/10/20 00:26:16;;;;;;;21.88;19.58;;;7.40;1.00;;;;;;5131446;27;20239;-76
2023/10/20 00:28:44;;;;;;;22.17;19.90;;;7.40;1.00;;;;;;5130897;27;20321;-78
2023/10/20 00:31:12;;;;;;;21.48;19.33;;;7.40;1.00;;;;;;5132337;27;20246;-77
2023/10/20 00:33:40;;;;;;;22.50;20.13;;;7.40;1.00;;;;;;5131594;27;20231;-77
2023/10/20 00:36:08;;;;;;;22.35;20.05;;;7.40;1.00;;;;;;5134976;27;20236;-77
2023/10/20 00:38:35;;;;;;;21.10;18.90;;;7.40;1.00;;;;;;5136373;27;20302;-78
2023/10/20 00:41:03;;;;;;;22.27;20.08;;;7.40;1.00;;;;;;5134344;27;20238;-77
2023/10/20 00:43:38;;;;;;;20.55;18.55;;;7.50;1.00;;;;;;5134698;27;20295;-75
2023/10/20 00:46:08;;;;;;;21.92;18.80;;;7.40;1.00;;;;;;5131292;27;20242;-80
2023/10/20 00:48:37;;;;;;;20.50;18.35;;;7.50;1.00;;;;;;5132377;27;20236;-74
2023/10/20 00:51:06;;;;;;;21.42;19.33;;;7.50;1.00;;;;;;5132228;27;20246;-76
2023/10/20 00:53:37;;;;;;;20.98;18.75;;;7.50;1.00;;;;;;5132786;27;20239;-75
2023/10/20 00:56:06;;;;;;;21.40;19.40;;;7.50;1.00;;;;;;5133661;27;20667;-75
2023/10/20 00:58:34;;;;;;;20.60;18.60;;;7.40;1.00;;;;;;5133612;27;20244;-77
2023/10/20 01:01:02;;;;;;;19.50;17.60;;;7.40;1.00;;;;;;5135073;27;20239;-74
2023/10/20 01:03:32;;;;;;;20.00;17.95;;;7.40;1.00;;;;;;5133042;27;20496;-76
2023/10/20 01:06:01;;;;;;;19.90;18.00;;;7.40;1.00;;;;;;5133195;27;20261;-73
2023/10/20 01:08:28;;;;;;;21.48;19.33;;;7.40;1.00;;;;;;5130991;27;20763;-76
2023/10/20 01:10:57;;;;;;;21.25;18.77;;;7.40;1.00;;;;;;5130174;27;20233;-76
2023/10/20 01:13:26;;;;;;;20.27;18.25;;;7.40;1.00;;;;;;5131186;27;20386;-76
2023/10/20 01:15:54;;;;;;;19.17;17.38;;;7.40;1.00;;;;;;5146292;27;20326;-77
2023/10/20 01:18:22;;;;;;;19.55;17.65;;;7.40;1.00;;;;;;5154685;27;20719;-75
2023/10/20 01:20:50;;;;;;;21.80;19.70;;;7.50;1.00;;;;;;5142668;27;20307;-75
2023/10/20 01:23:17;;;;;;;20.00;17.85;;;7.40;1.00;;;;;;5131387;27;20238;-77
2023/10/20 01:25:46;;;;;;;18.97;17.03;;;7.40;1.00;;;;;;5130774;27;20325;-77
2023/10/20 01:28:16;;;;;;;19.10;17.17;;;7.40;1.00;;;;;;5126379;27;20489;-72
2023/10/20 01:30:43;;;;;;;19.23;17.33;;;7.50;1.00;;;;;;5132822;27;20968;-76
2023/10/20 01:33:11;;;;;;;18.45;16.55;;;7.40;1.00;;;;;;5133387;27;20233;-76
2023/10/20 01:35:38;;;;;;;18.27;16.53;;;7.40;1.00;;;;;;5131831;27;20260;-76
2023/10/20 01:38:04;;;;;;;18.88;16.88;;;7.40;1.00;;;;;;5133660;27;20463;-76
2023/10/20 01:40:31;;;;;;;31.80;28.38;;;7.50;1.00;;;;;;5142888;27;20619;-74
2023/10/20 01:43:00;;;;;;;18.33;16.67;;;7.50;1.00;;;;;;5145285;27;20231;-80
2023/10/20 01:45:27;;;;;;;18.38;16.65;;;7.50;1.00;;;;;;5149842;27;20234;-76
2023/10/20 01:47:54;;;;;;;17.07;15.33;;;7.50;1.00;;;;;;5150707;27;20335;-75
2023/10/20 01:50:22;;;;;;;16.63;14.95;;;7.50;1.00;;;;;;5153154;27;20425;-78
2023/10/20 01:52:49;;;;;;;15.75;14.25;;;7.50;1.00;;;;;;5149196;27;20357;-77
2023/10/20 01:55:16;;;;;;;15.40;13.90;;;7.50;1.00;;;;;;5146624;27;20322;-75
2023/10/20 01:57:43;;;;;;;15.55;14.05;;;7.50;1.00;;;;;;5150404;27;20249;-78
2023/10/20 02:00:14;;;;;;;14.48;12.98;;;7.40;1.00;;;;;;5146064;27;20327;-76
2023/10/20 02:02:41;;;;;;;14.70;13.30;;;7.40;1.00;;;;;;5151147;27;20252;-77
2023/10/20 02:05:09;;;;;;;15.25;13.65;;;7.50;1.00;;;;;;5134013;27;21637;-74
2023/10/20 02:07:36;;;;;;;15.05;13.55;;;7.50;1.00;;;;;;5129058;27;20236;-75
2023/10/20 02:10:03;;;;;;;18.65;16.73;;;7.50;1.00;;;;;;5131705;27;21073;-72
2023/10/20 02:12:31;;;;;;;13.20;11.93;;;7.50;1.00;;;;;;5129497;27;20768;-76
2023/10/20 02:14:58;;;;;;;13.57;12.30;;;7.50;1.00;;;;;;5144584;27;20233;-75
2023/10/20 02:17:26;;;;;;;13.82;12.52;;;7.50;1.00;;;;;;5153269;27;20240;-76
2023/10/20 02:19:53;;;;;;;13.65;12.18;;;7.50;1.00;;;;;;5151156;27;20247;-76
2023/10/20 02:22:20;;;;;;;13.52;12.23;;;7.50;1.00;;;;;;5150593;27;20243;-71
2023/10/20 02:24:47;;;;;;;13.40;12.02;;;7.50;1.00;;;;;;5150142;27;20332;-72
2023/10/20 02:27:14;;;;;;;12.73;11.52;;;7.50;1.00;;;;;;5150521;27;20780;-71
2023/10/20 02:29:41;;;;;;;13.52;12.23;;;7.60;1.00;;;;;;5147681;27;20280;-72
2023/10/20 02:32:08;;;;;;;12.55;10.88;;;7.70;1.00;;;;;;5147698;27;20342;-75
2023/10/20 02:34:36;;;;;;;11.82;10.73;;;7.70;1.00;;;;;;5148576;27;21054;-75
2023/10/20 02:37:03;;;;;;;11.35;10.02;;;7.70;1.00;;;;;;5151683;27;20625;-70
2023/10/20 02:39:30;;;;;;;11.40;10.20;;;7.60;1.00;;;;;;5148255;27;20331;-71
2023/10/20 02:41:57;;;;;;;10.32;9.30;;;7.60;1.00;;;;;;5152725;27;20248;-71
2023/10/20 02:44:27;;;;;;;8.60;7.80;;;7.60;1.00;;;;;;5153839;27;20230;-72
2023/10/20 02:46:54;;;;;;;11.07;8.60;;;7.60;1.00;;;;;;5153555;27;22364;-71
2023/10/20 02:49:21;;;;;;;8.82;8.02;;;7.50;1.00;;;;;;5153454;27;20239;-70
2023/10/20 02:51:49;;;;;;;8.10;7.38;;;7.50;1.00;;;;;;5153720;27;20772;-71
2023/10/20 02:54:19;;;;;;;8.80;7.95;;;7.40;1.00;;;;;;5144085;27;20244;-73
2023/10/20 02:56:45;;;;;;;8.57;7.15;;;7.40;1.00;;;;;;5132859;27;20235;-71
2023/10/20 02:59:13;;;;;;;8.95;7.70;;;7.40;1.00;;;;;;5132522;27;20240;-73
2023/10/20 03:01:40;;;;;;;8.88;7.78;;;7.30;1.00;;;;;;5152013;27;20243;-71
2023/10/20 03:04:07;;;;;;;8.95;8.05;;;7.30;1.00;;;;;;5156747;27;20227;-71
2023/10/20 03:06:35;;;;;;;7.95;7.07;;;7.20;1.00;;;;;;5153277;27;20748;-71
2023/10/20 03:09:03;;;;;;;8.40;7.15;;;7.30;1.00;;;;;;5142600;27;20327;-70
2023/10/20 03:11:30;;;;;;;8.20;7.40;;;7.30;1.00;;;;;;5128528;27;20319;-72
2023/10/20 03:13:57;;;;;;;7.68;6.88;;;7.30;1.00;;;;;;5131838;27;20233;-71
2023/10/20 03:16:24;;;;;;;8.88;7.15;;;7.30;1.00;;;;;;5135845;27;21042;-70
2023/10/20 03:18:53;;;;;;;8.65;7.13;;;7.20;1.00;;;;;;5132054;27;20354;-71
2023/10/20 03:21:21;;;;;;;7.85;7.15;;;7.20;1.00;;;;;;5141505;27;20236;-77
2023/10/20 03:23:48;;;;;;;6.93;6.20;;;7.30;1.00;;;;;;5148341;27;20250;-73
2023/10/20 03:26:17;;;;;;;8.40;6.57;;;7.20;1.00;;;;;;5141493;27;20231;-70
2023/10/20 03:28:44;;;;;;;8.63;7.32;;;7.20;1.00;;;;;;5152663;27;20244;-71
2023/10/20 03:31:11;;;;;;;7.43;6.72;;;7.20;1.00;;;;;;5148381;27;20234;-72
2023/10/20 03:33:38;;;;;;;8.57;7.78;;;7.30;1.00;;;;;;5154397;27;20284;-70
2023/10/20 03:36:06;;;;;;;7.38;6.55;;;7.20;1.00;;;;;;5148684;27;20288;-73
2023/10/20 03:38:33;;;;;;;8.27;7.47;;;7.20;1.00;;;;;;5139900;27;20243;-72
2023/10/20 03:41:09;;;;;;;12.00;7.90;;;7.10;1.00;;;;;;5156139;27;20313;-71
2023/10/20 03:43:38;;;;;;;9.43;7.95;;;7.10;1.00;;;;;;5150128;27;20234;-71
2023/10/20 03:46:05;;;;;;;8.75;7.95;;;7.10;1.00;;;;;;5147597;27;20238;-71
2023/10/20 03:48:34;;;;;;;7.93;6.97;;;7.20;1.00;;;;;;5147964;27;20246;-71
2023/10/20 03:51:05;;;;;;;9.13;8.20;;;7.20;1.00;;;;;;5149756;27;20239;-71
2023/10/20 03:53:41;;;;;;;9.70;7.57;;;7.10;1.00;;;;;;5145145;27;20725;-75
2023/10/20 03:56:08;;;;;;;8.63;7.80;;;7.10;1.00;;;;;;5130103;27;20262;-71
2023/10/20 03:58:37;;;;;;;9.57;8.48;;;7.10;1.00;;;;;;5132720;27;20245;-72
2023/10/20 04:01:06;;;;;;;8.57;7.68;;;7.10;1.00;;;;;;5134323;27;20642;-72
2023/10/20 04:03:33;;;;;;;8.98;8.05;;;7.10;1.00;;;;;;5129471;27;20270;-71
2023/10/20 04:06:01;;;;;;;10.32;8.20;;;7.10;1.00;;;;;;5128419;27;20297;-71
2023/10/20 04:08:29;;;;;;;8.90;7.93;;;7.10;1.00;;;;;;5131168;27;21161;-73
2023/10/20 04:10:59;;;;;;;9.18;8.27;;;7.10;1.00;;;;;;5130914;27;20334;-71
2023/10/20 04:13:28;;;;;;;9.80;8.90;;;7.00;1.00;;;;;;5129711;27;20268;-71
2023/10/20 04:15:56;;;;;;;9.73;8.43;;;7.00;1.00;;;;;;5132082;27;20251;-71
2023/10/20 04:18:24;;;;;;;9.25;8.35;;;7.00;1.00;;;;;;5132229;27;21008;-72
2023/10/20 04:20:51;;;;;;;8.88;7.97;;;7.00;1.00;;;;;;5131636;27;21121;-72
2023/10/20 04:23:18;;;;;;;9.95;8.95;;;7.00;1.00;;;;;;5131286;27;20328;-71
2023/10/20 04:25:52;;;;;;;10.90;9.80;;;6.90;1.00;;;;;;5129285;27;20328;-70
2023/10/20 04:28:20;;;;;;;9.60;7.90;;;6.90;1.00;;;;;;5133457;27;20318;-71
2023/10/20 04:41:56;;;;;;;10.60;9.25;;;6.90;1.00;;;;;;5152284;27;20234;-71
2023/10/20 04:58:34;;;;;;;10.88;9.85;;;6.80;1.00;;;;;;5070005;28;20412;-71
2023/10/20 05:01:07;;;;;;;9.85;8.82;;;6.80;1.00;;;;;;5118511;27;20221;-72
2023/10/20 05:03:45;;;;;;;11.57;10.38;;;6.80;1.00;;;;;;5148546;27;20246;-74
2023/10/20 05:09:04;;;;;;;10.85;9.75;;;6.80;1.00;;;;;;5128484;27;21318;-70
2023/10/20 05:11:31;;;;;;;10.77;9.68;;;6.70;1.00;;;;;;5151358;27;20333;-71
2023/10/20 05:13:58;;;;;;;10.85;9.75;;;6.70;1.00;;;;;;5146333;27;20254;-71
2023/10/20 05:16:28;;;;;;;10.23;9.27;;;6.70;1.00;;;;;;5145183;27;20234;-71
2023/10/20 05:18:55;;;;;;;11.55;10.13;;;6.80;1.00;;;;;;5128227;27;20722;-72
2023/10/20 05:21:25;;;;;;;10.40;9.30;;;6.80;1.00;;;;;;5144253;27;21042;-72
2023/10/20 05:23:52;;;;;;;10.60;9.50;;;6.80;1.00;;;;;;5149936;27;20238;-71
2023/10/20 05:26:19;;;;;;;11.00;9.90;;;6.80;1.00;;;;;;5142702;27;20243;-71
2023/10/20 05:28:46;;;;;;;12.68;11.38;;;6.70;1.00;;;;;;5148407;27;20246;-71
2023/10/20 05:31:13;;;;;;;11.25;10.15;;;6.70;1.00;;;;;;5148027;27;20346;-72
2023/10/20 05:33:40;;;;;;;12.65;10.82;;;6.70;1.00;;;;;;5150687;27;20238;-70
2023/10/20 05:36:08;;;;;;;10.77;9.68;;;6.70;1.00;;;;;;5146854;27;20301;-71
2023/10/20 05:38:36;;;;;;;12.25;10.85;;;6.70;1.00;;;;;;5148770;27;20257;-72
2023/10/20 05:41:03;;;;;;;17.63;14.05;;;6.70;1.00;;;;;;5142434;27;20292;-73
2023/10/20 05:43:30;;;;;;;12.52;11.25;;;6.70;1.00;;;;;;5126296;27;20319;-73
2023/10/20 05:45:57;;;;;;;12.70;11.27;;;6.70;1.00;;;;;;5148552;27;20314;-71
2023/10/20 05:48:24;;;;;;;11.93;10.73;;;6.70;1.00;;;;;;5148139;27;20875;-72
2023/10/20 05:50:57;;;;;;;11.80;10.65;;;6.80;1.00;;;;;;5147096;27;20243;-72
2023/10/20 05:53:24;;;;;;;13.40;12.00;;;6.70;1.00;;;;;;5148821;27;20298;-71
2023/10/20 05:55:52;;;;;;;12.88;11.57;;;6.70;1.00;;;;;;5148856;27;20241;-71
2023/10/20 05:58:21;;;;;;;12.02;10.93;;;6.70;1.00;;;;;;5150213;27;20306;-70
2023/10/20 06:00:48;;;;;;;15.05;12.00;;;6.70;1.00;;;;;;5146084;27;21033;-71
2023/10/20 06:03:15;;;;;;;13.45;11.75;;;6.60;1.00;;;;;;5137453;27;20255;-70
2023/10/20 06:05:41;;;;;;;12.65;11.35;;;6.60;1.00;;;;;;5144505;27;20238;-70
2023/10/20 06:08:08;;;;;;;12.82;11.52;;;6.60;1.00;;;;;;5145445;27;20249;-70
2023/10/20 06:10:36;;;;;;;13.68;12.25;;;6.60;1.00;;;;;;5138416;27;20349;-71
2023/10/20 06:13:05;;;;;;;14.25;12.55;;;6.60;1.00;;;;;;5145772;27;20241;-73
2023/10/20 06:15:32;;;;;;;13.45;11.93;;;6.60;1.00;;;;;;5151077;27;21028;-70
2023/10/20 06:17:59;;;;;;;11.73;10.52;;;6.60;1.00;;;;;;5150390;27;20231;-72
2023/10/20 06:20:26;;;;;;;14.52;13.10;;;6.50;1.00;;;;;;5151457;27;20234;-72
2023/10/20 06:22:53;;;;;;;12.90;11.65;;;6.60;1.00;;;;;;5151125;27;20334;-71
2023/10/20 06:25:20;;;;;;;12.90;11.70;;;6.50;1.00;;;;;;5143381;27;20267;-71
2023/10/20 06:27:47;;;;;;;14.50;12.65;;;6.50;1.00;;;;;;5144483;27;20230;-71
2023/10/20 06:30:19;;;;;;;16.48;12.93;;;6.60;1.00;;;;;;5143091;27;20341;-71
2023/10/20 06:32:51;;;;;;;13.73;12.38;;;6.60;1.00;;;;;;5146550;27;20424;-71
2023/10/20 06:35:19;;;;;;;14.77;12.55;;;6.50;1.00;;;;;;5146928;27;20234;-69
2023/10/20 06:37:55;;;;;;;14.98;13.18;;;6.50;1.00;;;;;;5149391;27;20239;-69
2023/10/20 06:40:22;;;;;;;20.30;12.73;;;6.60;1.00;;;;;;5151605;27;20316;-70
2023/10/20 06:42:52;;;;;;;13.25;11.95;;;6.60;1.00;;;;;;5139384;27;21054;-72
2023/10/20 06:45:20;;;;;;;14.38;12.98;;;6.70;1.00;;;;;;5140839;27;20227;-72
2023/10/20 06:47:47;;;;;;;13.02;11.73;;;6.60;1.00;;;;;;5149095;27;20720;-71
2023/10/20 06:50:14;;;;;;;13.30;12.00;;;6.60;1.00;;;;;;5143181;27;21033;-69
2023/10/20 06:52:41;;;;;;;16.92;13.07;;;6.60;1.00;;;;;;5144953;27;20234;-71
2023/10/20 06:55:09;;;;;;;13.20;11.90;;;6.60;1.00;;;;;;5147707;27;20667;-71
2023/10/20 06:57:36;;;;;;;13.60;12.18;;;6.60;1.00;;;;;;5144063;27;21020;-71
2023/10/20 07:00:06;;;;;;;13.70;11.15;;;6.60;1.00;;;;;;5129458;27;20786;-72
2023/10/20 07:02:34;;;;;;;13.73;12.32;;;6.60;1.00;;;;;;5135611;27;20367;-76
2023/10/20 07:05:01;;;;;;;13.35;11.48;;;6.60;1.00;;;;;;5129576;27;20315;-73
2023/10/20 07:07:28;;;;;;;12.48;11.27;;;6.50;1.00;;;;;;5129034;27;20716;-76
2023/10/20 07:09:56;;;;;;;14.52;11.18;;;6.50;1.00;;;;;;5148862;27;21170;-78
2023/10/20 07:12:23;;;;;;;15.90;12.07;;;6.50;1.00;;;;;;5145394;27;20705;-79
2023/10/20 07:14:50;;;;;;;13.05;11.75;;;6.50;1.00;;;;;;5148809;27;20249;-75
2023/10/20 07:17:17;;;;;;;14.25;12.15;;;6.50;1.00;;;;;;5147423;27;20234;-77
2023/10/20 07:19:46;;;;;;;13.10;11.77;;;6.50;1.00;;;;;;5147957;27;20299;-78
2023/10/20 07:22:13;;;;;;;12.85;11.57;;;6.50;1.00;;;;;;5148186;27;20862;-77
2023/10/20 07:24:41;;;;;;;15.05;11.30;;;6.50;1.00;;;;;;5151185;27;20219;-74
2023/10/20 07:27:08;;;;;;;12.43;11.13;;;6.50;1.00;;;;;;5133681;27;20238;-74
2023/10/20 07:29:38;;;;;;;13.07;11.65;;;6.50;1.00;;;;;;5142526;27;20242;-76
2023/10/20 07:32:06;;;;;;;14.65;11.95;;;6.40;1.00;;;;;;5151412;27;20329;-75
2023/10/20 07:34:34;;;;;;;14.68;11.68;;;6.40;1.00;;;;;;5134182;27;20238;-75
2023/10/20 07:37:02;;;;;;;14.10;12.15;;;6.40;1.00;;;;;;5150802;27;20316;-77
2023/10/20 07:39:30;;;;;;;15.27;13.68;;;6.50;1.00;;;;;;5151941;27;20247;-77
2023/10/20 07:41:57;;;;;;;13.23;11.90;;;6.50;1.00;;;;;;5152075;27;20252;-76
2023/10/20 07:44:24;;;;;;;14.50;11.65;;;6.50;1.00;;;;;;5150831;27;20245;-76
2023/10/20 07:46:51;;;;;;;13.38;12.18;;;6.50;1.00;;;;;;5149632;27;20270;-77
2023/10/20 07:49:19;;;;;;;12.13;10.93;;;6.50;1.00;;;;;;5132241;27;20247;-76
2023/10/20 07:51:46;;;;;;;13.00;11.57;;;6.50;1.00;;;;;;5149921;27;20232;-76
2023/10/20 07:54:15;;;;;;;13.63;12.23;;;6.40;1.00;;;;;;5146181;27;20236;-78
2023/10/20 07:56:42;;;;;;;13.63;10.00;;;6.50;1.00;;;;;;5148862;27;20241;-77
2023/10/20 07:59:10;;;;;;;13.13;11.82;;;6.40;1.00;;;;;;5130740;27;20299;-77
2023/10/20 08:01:37;;;;;;;11.60;10.40;;;6.40;1.00;;;;;;5152365;27;21226;-78
2023/10/20 08:04:05;;;;;;;11.30;10.13;;;6.40;1.00;;;;;;5153077;27;20682;-78
2023/10/20 08:06:32;;;;;;;13.02;11.65;;;6.50;1.00;;;;;;5152110;27;20319;-80
2023/10/20 08:08:59;;;;;;;12.10;10.95;;;6.40;1.00;;;;;;5147257;27;20271;-77
2023/10/20 08:11:27;;;;;;;12.95;11.63;;;6.40;1.00;;;;;;5152556;27;21031;-76
2023/10/20 08:13:59;;;;;;;11.75;10.55;;;6.40;1.00;;;;;;5145312;27;20272;-76
2023/10/20 08:16:26;;;;;;;11.70;10.50;;;6.40;1.00;;;;;;5134295;27;20254;-74
2023/10/20 08:18:53;;;;;;;14.68;13.05;;;6.50;1.00;;;;;;5137748;27;20239;-73
2023/10/20 08:21:20;;;;;;;10.93;9.45;;;6.50;1.00;;;;;;5131497;27;20250;-74
2023/10/20 08:23:47;;;;;;;11.40;10.20;;;6.40;1.00;;;;;;5128823;27;20279;-74
2023/10/20 08:26:19;;;;;;;10.30;9.30;;;6.50;1.00;;;;;;5149281;27;20237;-74
2023/10/20 08:28:48;;;;;;;12.10;10.60;;;6.50;1.00;;;;;;5148416;27;21081;-74
2023/10/20 08:31:17;;;;;;;10.23;9.27;;;6.50;1.00;;;;;;5147402;27;20743;-74
2023/10/20 08:33:44;;;;;;;11.20;10.13;;;6.40;1.00;;;;;;5150549;27;20242;-74
2023/10/20 08:36:13;;;;;;;11.85;9.90;;;6.40;1.00;;;;;;5145978;27;21023;-73
2023/10/20 08:38:42;;;;;;;10.07;9.07;;;6.40;1.00;;;;;;5145916;27;20288;-74
2023/10/20 08:41:10;;;;;;;10.27;9.30;;;6.50;1.00;;;;;;5149440;27;20238;-72
2023/10/20 08:43:40;;;;;;;9.10;8.30;;;6.40;1.00;;;;;;5151631;27;20646;-74
2023/10/20 08:46:10;;;;;;;10.10;9.10;;;6.40;1.00;;;;;;5147906;27;20237;-75
2023/10/20 08:48:41;;;;;;;13.57;9.90;;;6.50;1.00;;;;;;5148143;27;20241;-74
2023/10/20 08:51:09;;;;;;;11.30;10.10;;;6.50;1.00;;;;;;5149916;27;20863;-74
2023/10/20 08:53:38;;;;;;;10.52;9.52;;;6.50;1.00;;;;;;5148753;27;21084;-73
2023/10/20 08:56:07;;;;;;;10.95;9.82;;;6.50;1.00;;;;;;5151965;27;20709;-73
2023/10/20 08:58:35;;;;;;;10.73;9.70;;;6.40;1.00;;;;;;5141407;27;20325;-73
2023/10/20 09:01:03;;;;;;;10.32;9.15;;;6.30;1.00;;;;;;5139009;27;21215;-70
2023/10/20 09:03:40;;;;;;;10.90;9.77;;;6.30;1.00;;;;;;5145283;27;20746;-72
2023/10/20 09:06:10;;;;;;;11.18;9.45;;;6.30;1.00;;;;;;5149849;27;21105;-74
2023/10/20 09:08:37;;;;;;;9.75;8.85;;;6.30;1.00;;;;;;5150766;27;20729;-74
2023/10/20 09:11:07;;;;;;;11.85;9.80;;;6.30;1.00;;;;;;5148325;27;20233;-72
2023/10/20 09:13:36;;;;;;;10.50;9.50;;;6.30;1.00;;;;;;5151045;27;20324;-76
2023/10/20 09:16:07;;;;;;;11.43;10.23;;;6.30;1.00;;;;;;5149748;27;20243;-75
2023/10/20 09:18:44;;;;;;;12.60;9.38;;;6.30;1.00;;;;;;5147049;27;20234;-74
2023/10/20 09:21:12;;;;;;;11.50;9.40;;;6.30;1.00;;;;;;5156181;27;20240;-75
2023/10/20 09:23:39;;;;;;;10.65;9.57;;;6.30;1.00;;;;;;5140746;27;20704;-75
2023/10/20 09:26:06;;;;;;;11.20;10.20;;;6.30;1.00;;;;;;5149461;27;20238;-73
2023/10/20 09:28:33;;;;;;;10.75;9.70;;;6.30;1.00;;;;;;5147875;27;20272;-72
2023/10/20 09:31:01;;;;;;;10.75;9.60;;;6.30;1.00;;;;;;5147092;27;20238;-72
2023/10/20 09:33:28;;;;;;;9.93;8.90;;;6.30;1.00;;;;;;5150268;27;20234;-73
2023/10/20 09:35:58;;;;;;;12.38;8.55;;;6.30;1.00;;;;;;5147647;27;20349;-72
2023/10/20 09:38:27;;;;;;;9.23;8.23;;;6.30;1.00;;;;;;5147362;27;20728;-73
2023/10/20 09:41:12;;;;;;;9.05;8.15;;;6.30;1.00;;;;;;5134009;27;21034;-73
2023/10/20 09:43:47;;;;;;;9.82;8.82;;;6.30;1.00;;;;;;5148246;27;20324;-71
2023/10/20 09:46:32;;;;;;;8.35;7.50;;;6.30;1.00;;;;;;5147598;27;20954;-75
2023/10/20 09:49:05;;;;;;;9.73;8.80;;;6.20;1.00;;;;;;5145813;27;20229;-73
2023/10/20 09:51:34;;;;;;;8.82;7.90;;;6.20;1.00;;;;;;5149358;27;20234;-71
2023/10/20 09:54:02;;;;;;;11.60;10.40;;;6.20;1.00;;;;;;5148116;27;20242;-72
2023/10/20 09:56:30;;;;;;;9.35;7.78;;;6.20;1.00;;;;;;5149368;27;20245;-73
2023/10/20 09:59:00;;;;;;;9.27;7.30;;;6.30;1.00;;;;;;5144398;27;21538;-72
2023/10/20 10:01:27;;;;;;;8.98;8.18;;;6.20;1.00;;;;;;5145291;27;20729;-75
2023/10/20 10:04:03;;;;;;;8.05;6.85;;;6.20;1.00;;;;;;5141508;27;20242;-72
2023/10/20 10:06:38;;;;;;;8.55;7.13;;;6.20;1.00;;;;;;5138927;27;20396;-74
2023/10/20 10:09:06;;;;;;;8.75;7.70;;;6.20;1.00;;;;;;5145813;27;20951;-73
2023/10/20 10:11:39;;;;;;;9.60;7.30;;;6.20;1.00;;;;;;5138104;27;20750;-73
2023/10/20 10:14:07;;;;;;;7.63;6.78;;;6.20;1.00;;;;;;5133042;27;20866;-72
2023/10/20 10:16:38;;;;;;;7.32;6.50;;;6.20;1.00;;;;;;5135782;27;20242;-72
2023/10/20 10:19:08;;;;;;;6.68;5.82;;;6.20;1.00;;;;;;5130863;27;20266;-73
2023/10/20 10:21:40;;;;;;;6.40;5.80;;;6.20;1.00;;;;;;5145601;27;20270;-72
2023/10/20 10:24:14;;;;;;;6.90;6.25;;;6.10;1.00;;;;;;5138736;27;20304;-72
2023/10/20 10:26:51;;;;;;;8.32;6.65;;;6.10;1.00;;;;;;5128835;27;20295;-74
2023/10/20 10:29:18;;;;;;;6.22;5.63;;;6.10;1.00;;;;;;5132016;27;20330;-74
2023/10/20 10:31:47;;;;;;;6.28;5.68;;;6.10;1.00;;;;;;5136310;27;20789;-76
2023/10/20 10:34:14;;;;;;;6.97;6.38;;;6.20;1.00;;;;;;5151827;27;20268;-71
2023/10/20 10:36:47;;;;;;;8.18;5.35;;;6.20;1.00;;;;;;5140942;27;20315;-69
2023/10/20 10:39:27;;;;;;;6.28;5.68;;;6.20;1.00;;;;;;5150660;27;21589;-71
2023/10/20 10:41:54;;;;;;;9.02;6.20;;;6.20;1.00;;;;;;5147424;27;20242;-70
2023/10/20 10:44:22;;;;;;;5.82;5.25;;;6.20;1.00;;;;;;5148915;27;20240;-73
2023/10/20 10:46:51;;;;;;;6.35;5.75;;;6.20;1.00;;;;;;5129930;27;20286;-71
2023/10/20 10:49:18;;;;;;;6.40;5.05;;;6.20;1.00;;;;;;5150330;27;20321;-72
2023/10/20 10:51:47;;;;;;;6.22;5.63;;;6.40;1.00;;;;;;5138743;27;20331;-70
2023/10/20 10:54:15;;;;;;;7.03;6.10;;;6.50;1.00;;;;;;5128835;27;21096;-72
2023/10/20 10:56:42;;;;;;;6.22;5.70;;;6.60;1.00;;;;;;5122738;27;20251;-71
2023/10/20 10:59:11;;;;;;;5.47;4.93;;;6.50;1.00;;;;;;5137145;27;20359;-70
2023/10/20 11:01:40;;;;;;;6.20;5.60;;;6.40;1.00;;;;;;5123380;27;20258;-69
2023/10/20 11:04:10;;;;;;;6.45;5.85;;;6.40;1.00;;;;;;5117273;27;20344;-71
2023/10/20 11:06:37;;;;;;;6.88;6.20;;;6.40;1.00;;;;;;5129433;27;20763;-71
2023/10/20 11:09:10;;;;;;;7.40;6.20;;;6.40;1.00;;;;;;5139076;27;20231;-73
2023/10/20 11:11:47;;;;;;;6.35;5.82;;;6.40;1.00;;;;;;5141430;27;20364;-72
2023/10/20 11:14:17;;;;;;;5.65;5.15;;;6.40;1.00;;;;;;5156175;27;20233;-71
2023/10/20 11:16:45;;;;;;;6.65;6.05;;;6.50;1.00;;;;;;5144718;27;20615;-72
2023/10/20 11:19:13;;;;;;;6.40;5.80;;;6.40;1.00;;;;;;5153733;27;20230;-71
2023/10/20 11:21:47;;;;;;;6.85;6.10;;;6.40;1.00;;;;;;5148207;27;20731;-72
2023/10/20 11:24:28;;;;;;;5.93;5.30;;;6.40;1.00;;;;;;5147091;27;20282;-70
2023/10/20 11:27:00;;;;;;;6.00;5.50;;;6.50;1.00;;;;;;5149589;27;20235;-69
2023/10/20 11:29:31;;;;;;;6.70;5.40;;;6.40;1.00;;;;;;5142041;27;20250;-71
2023/10/20 11:32:05;;;;;;;6.28;5.68;;;6.40;1.00;;;;;;5150008;27;20412;-70
2023/10/20 11:34:32;;;;;;;5.68;5.13;;;6.50;1.00;;;;;;5154263;27;20230;-70
2023/10/20 11:36:59;;;;;;;6.47;5.93;;;6.40;1.00;;;;;;5149435;27;21035;-70
2023/10/20 11:39:28;;;;;;;7.43;5.80;;;6.50;1.00;;;;;;5153970;27;20238;-72
2023/10/20 11:41:56;;;;;;;6.00;5.40;;;6.50;1.00;;;;;;5142610;27;20237;-70
2023/10/20 11:44:25;;;;;;;9.00;6.80;;;6.50;1.00;;;;;;5131796;27;20270;-71
2023/10/20 11:46:53;;;;;;;5.97;5.38;;;6.50;1.00;;;;;;5127629;27;20238;-70
2023/10/20 11:49:20;;;;;;;5.07;4.57;;;6.60;1.00;;;;;;5137211;27;20242;-70
2023/10/20 11:51:48;;;;;;;5.18;4.53;;;6.50;1.00;;;;;;5151748;27;20292;-70
2023/10/20 11:54:16;;;;;;;5.60;5.00;;;6.60;1.00;;;;;;5153135;27;20235;-71
2023/10/20 11:56:44;;;;;;;5.25;4.40;;;6.50;1.00;;;;;;5153966;27;20238;-71
2023/10/20 11:59:12;;;;;;;5.57;4.95;;;6.50;1.00;;;;;;5151116;27;20611;-70
2023/10/20 12:01:39;;;;;;;5.18;4.07;;;6.50;1.00;;;;;;5143659;27;20295;-71
2023/10/20 12:04:08;;;;;;;4.80;4.40;;;6.50;1.00;;;;;;5153457;27;20263;-76
2023/10/20 12:06:36;;;;;;;5.55;5.05;;;6.50;1.00;;;;;;5150900;27;20570;-71
2023/10/20 12:09:06;;;;;;;5.18;4.68;;;6.40;1.00;;;;;;5147297;27;20222;-72
2023/10/20 12:11:34;;;;;;;7.57;3.90;;;6.40;1.00;;;;;;5138259;27;20242;-70
2023/10/20 12:14:03;;;;;;;4.40;4.00;;;6.30;1.00;;;;;;5140093;27;20239;-70
2023/10/20 12:16:30;;;;;;;4.95;3.80;;;6.30;1.00;;;;;;5133184;27;20270;-70
2023/10/20 12:19:01;;;;;;;5.95;4.68;;;6.30;1.00;;;;;;5141020;27;20245;-71
2023/10/20 12:21:29;;;;;;;4.90;4.15;;;6.30;1.00;;;;;;5141818;27;20690;-68
2023/10/20 12:23:56;;;;;;;5.03;4.55;;;6.30;1.00;;;;;;5142399;27;20341;-71
2023/10/20 12:26:23;;;;;;;4.45;4.05;;;6.30;1.00;;;;;;5159663;27;20239;-70
2023/10/20 12:28:50;;;;;;;4.40;4.00;;;6.30;1.00;;;;;;5152531;27;20235;-69
2023/10/20 12:31:19;;;;;;;4.30;3.60;;;6.30;1.00;;;;;;5150954;27;20322;-72
2023/10/20 12:33:46;;;;;;;3.80;3.38;;;6.40;1.00;;;;;;5153333;27;20354;-70
2023/10/20 12:36:16;;;;;;;4.20;3.80;;;6.40;1.00;;;;;;5156343;27;20236;-71
2023/10/20 12:38:43;;;;;;;3.72;3.42;;;6.40;1.00;;;;;;5134033;27;20235;-71
2023/10/20 12:41:11;;;;;;;4.63;4.22;;;6.40;1.00;;;;;;5152049;27;20287;-70
2023/10/20 12:43:38;;;;;;;3.42;3.13;;;6.40;1.00;;;;;;5151920;27;20242;-68
2023/10/20 12:46:05;;;;;;;3.35;3.05;;;6.40;1.00;;;;;;5154196;27;20765;-76
2023/10/20 12:48:33;;;;;;;3.20;2.90;;;6.40;1.00;;;;;;5150879;27;20244;-73
2023/10/20 12:51:08;;;;;;;4.10;3.30;;;6.40;1.00;;;;;;5152951;27;20233;-69
2023/10/20 12:53:35;;;;;;;3.70;3.40;;;6.40;1.00;;;;;;5143520;27;20272;-71
2023/10/20 12:56:02;;;;;;;3.03;2.78;;;6.30;1.00;;;;;;5132055;27;20272;-70
2023/10/20 12:58:29;;;;;;;2.88;2.47;;;6.40;1.00;;;;;;5146995;27;20247;-70
2023/10/20 13:00:57;;;;;;;4.18;3.78;;;6.40;1.00;;;;;;5150173;27;20258;-70
2023/10/20 13:03:24;;;;;;;9.13;6.47;;;6.40;1.00;;;;;;5133216;27;20230;-70
2023/10/20 13:05:52;;;;;;;3.03;2.53;;;6.40;1.00;;;;;;5149003;27;20230;-70
2023/10/20 13:08:19;;;;;;;2.55;2.35;;;6.30;1.00;;;;;;5147812;27;20465;-70
2023/10/20 13:10:47;;;;;;;2.42;2.22;;;6.30;1.00;;;;;;5149498;27;20329;-70
2023/10/20 13:13:14;;;;;;;4.93;3.22;;;6.30;1.00;;;;;;5140594;27;20304;-70
2023/10/20 13:15:41;;;;;;;3.58;3.38;;;6.30;1.00;;;;;;5127607;27;20303;-72
2023/10/20 13:18:08;;;;;;;4.78;2.50;;;6.30;1.00;;;;;;5131493;27;20299;-70
2023/10/20 13:20:36;;;;;;;2.92;2.50;;;6.30;1.00;;;;;;5129338;27;20295;-71
2023/10/20 13:23:04;;;;;;;3.13;2.35;;;6.40;1.00;;;;;;5134697;27;20241;-71
2023/10/20 13:25:31;;;;;;;2.58;2.05;;;6.30;1.00;;;;;;5142829;27;20743;-71
2023/10/20 13:27:59;;;;;;;2.35;2.15;;;6.30;1.00;;;;;;5147323;27;20234;-71
2023/10/20 13:30:26;;;;;;;2.70;2.50;;;6.20;1.00;;;;;;5150498;27;20242;-72
2023/10/20 13:32:55;;;;;;;3.10;2.70;;;6.20;1.00;;;;;;5149903;27;20402;-71